Nissho Maru No7 — JH3472 — position and weather

sailwx.info

Track history (hours):
 
Tides and Currents Weather Stations Pressure Air Temp Water Temp Dewpoint Dewpoint Depression Visibility Wind Speed Wind Dir Waves Ship Positions

Nissho Maru No7

Last reported at 2015-Dec-14 02:33 UTC. Time now 2016-Feb-10 06:50 UTC.
Position N 34°37' E 134°57'.
Warning: this ship's position is 58 days out of date.

Length 71 m; draft 4.8 m.

MMSI: 431200355.

Date/timePositionNaut miles runAvg speedWind from/ knotsBaromVisibWave heightAir tempDewpointWater temp
2015-Dec-14 02:33N 34°37' E 134°57'1212.3
2015-Dec-14 01:33N 34°37' E 135°12'1110.8
2015-Dec-14 00:32N 34°39' E 135°25'2 1.0
2015-Dec-13 22:30N 34°39' E 135°28'0 0.0
2015-Dec-13 21:18N 34°39' E 135°28'0 0.0
2015-Dec-13 20:30N 34°39' E 135°28'0 0.0
2015-Dec-13 19:30N 34°39' E 135°28'0 0.0
2015-Dec-13 18:30N 34°39' E 135°28'0 0.0
2015-Dec-13 17:30N 34°39' E 135°28'0 0.0
2015-Dec-13 16:30N 34°39' E 135°28'0 0.0
2015-Dec-13 15:18N 34°39' E 135°28'0 0.0
2015-Dec-13 14:18N 34°39' E 135°28'0 0.0
2015-Dec-13 13:30N 34°39' E 135°28'0 0.0
2015-Dec-13 12:24N 34°39' E 135°28'0 0.0
2015-Dec-13 11:30N 34°39' E 135°28'0 0.0
2015-Dec-13 10:24N 34°39' E 135°28'0 0.0
2015-Dec-13 09:24N 34°39' E 135°28'0 0.0
2015-Dec-13 08:30N 34°39' E 135°28'0 0.0
2015-Dec-13 07:30N 34°39' E 135°28'0 0.0
2015-Dec-13 06:30N 34°39' E 135°28'0 0.0
2015-Dec-13 05:30N 34°39' E 135°28'0 0.0
2015-Dec-13 04:30N 34°39' E 135°28'0 0.0
2015-Dec-13 03:30N 34°39' E 135°28'0 0.0
2015-Dec-13 02:24N 34°39' E 135°28'0 0.0
2015-Dec-13 01:26N 34°39' E 135°28'0 0.0
2015-Dec-13 00:33N 34°39' E 135°28'5 4.8
2015-Dec-12 23:33N 34°37' E 135°22'0 0.0
2015-Dec-12 22:16N 34°37' E 135°22'0 0.0
2015-Dec-12 21:04N 34°37' E 135°22'0 0.0
2015-Dec-12 20:22N 34°37' E 135°22'0 0.0
2015-Dec-12 19:22N 34°37' E 135°22'0 0.1
2015-Dec-12 18:28N 34°37' E 135°22'0 0.0
2015-Dec-12 17:28N 34°37' E 135°22'0 0.0
2015-Dec-12 16:33N 34°37' E 135°22'0 0.0
2015-Dec-12 15:33N 34°37' E 135°22'3 2.5
2015-Dec-12 14:33N 34°36' E 135°25'1 0.2
2015-Dec-12 09:34N 34°35' E 135°26'9 9.1
2015-Dec-12 08:33N 34°31' E 135°16'2010.2
2015-Dec-12 06:33N 34°16' E 134°60'6 6.3
2015-Dec-12 05:34N 34°15' E 135°07'0 0.0
2015-Dec-12 04:29N 34°15' E 135°07'0 0.0
2015-Dec-12 03:32N 34°15' E 135°07'0 0.0
2015-Dec-12 02:32N 34°15' E 135°07'0 0.0
2015-Dec-12 01:29N 34°15' E 135°07'0 0.0
2015-Dec-12 00:32N 34°15' E 135°07'0 0.0
2015-Dec-11 23:32N 34°15' E 135°07'0 0.0
2015-Dec-11 22:32N 34°15' E 135°07'0 0.3
2015-Dec-11 21:33N 34°14' E 135°07'6 5.9
2015-Dec-11 20:33N 34°20' E 135°06'5 5.2
2015-Dec-11 19:30N 34°24' E 135°11'0 0.0
2015-Dec-11 16:27N 34°24' E 135°11'0 0.0
2015-Dec-11 15:33N 34°24' E 135°11'0 0.0
2015-Dec-11 12:09N 34°24' E 135°11'0 0.0
2015-Dec-11 11:27N 34°24' E 135°11'0 0.0
2015-Dec-11 09:18N 34°24' E 135°11'0 0.0
2015-Dec-11 05:27N 34°24' E 135°11'0 0.1
2015-Dec-11 04:33N 34°24' E 135°11'0 0.1
2015-Dec-11 03:19N 34°24' E 135°11'810.4
2015-Dec-11 02:33N 34°31' E 135°06'10 9.7
2015-Dec-11 01:32N 34°36' E 134°56'10 0.3
2015-Dec-09 10:26N 34°41' E 134°45'1112.1
2015-Dec-09 09:33N 34°38' E 134°58'9 8.7
2015-Dec-09 08:33N 34°31' E 135°04'1211.6
2015-Dec-09 07:31N 34°19' E 134°60'1010.8
2015-Dec-09 06:33N 34°08' E 134°60'  
2015-Dec-06 00:29N 34°58' E 140°01'1111.8
2015-Dec-05 23:33N 35°04' E 140°12'3210.5
2015-Dec-05 20:33N 35°25' E 140°40'1310.9
2015-Dec-05 19:19N 35°36' E 140°50'18 9.4
2015-Dec-05 17:23N 35°54' E 140°47'5 6.0
2015-Dec-05 16:33N 35°55' E 140°40'0 0.0
2015-Dec-05 00:33N 35°55' E 140°41'  
Track history (hours):
 
Tides and Currents Weather Stations Pressure Air Temp Water Temp Dewpoint Dewpoint Depression Visibility Wind Speed Wind Dir Waves Ship Positions

Nissho Maru No7

Last reported at 2015-Dec-14 02:33 UTC. Time now 2016-Feb-10 06:50 UTC.
Position N 34°37' E 134°57'.
Warning: this ship's position is 58 days out of date.

Length 71 m; draft 4.8 m.

MMSI: 431200355.

Date/timePositionNaut miles runAvg speedWind from/ knotsBaromVisibWave heightAir tempDewpointWater temp
2015-Dec-14 02:33N 34°37' E 134°57'1212.3
2015-Dec-14 01:33N 34°37' E 135°12'1110.8
2015-Dec-14 00:32N 34°39' E 135°25'2 1.0
2015-Dec-13 22:30N 34°39' E 135°28'0 0.0
2015-Dec-13 21:18N 34°39' E 135°28'0 0.0
2015-Dec-13 20:30N 34°39' E 135°28'0 0.0
2015-Dec-13 19:30N 34°39' E 135°28'0 0.0
2015-Dec-13 18:30N 34°39' E 135°28'0 0.0
2015-Dec-13 17:30N 34°39' E 135°28'0 0.0
2015-Dec-13 16:30N 34°39' E 135°28'0 0.0
2015-Dec-13 15:18N 34°39' E 135°28'0 0.0
2015-Dec-13 14:18N 34°39' E 135°28'0 0.0
2015-Dec-13 13:30N 34°39' E 135°28'0 0.0
2015-Dec-13 12:24N 34°39' E 135°28'0 0.0
2015-Dec-13 11:30N 34°39' E 135°28'0 0.0
2015-Dec-13 10:24N 34°39' E 135°28'0 0.0
2015-Dec-13 09:24N 34°39' E 135°28'0 0.0
2015-Dec-13 08:30N 34°39' E 135°28'0 0.0
2015-Dec-13 07:30N 34°39' E 135°28'0 0.0
2015-Dec-13 06:30N 34°39' E 135°28'0 0.0
2015-Dec-13 05:30N 34°39' E 135°28'0 0.0
2015-Dec-13 04:30N 34°39' E 135°28'0 0.0
2015-Dec-13 03:30N 34°39' E 135°28'0 0.0
2015-Dec-13 02:24N 34°39' E 135°28'0 0.0
2015-Dec-13 01:26N 34°39' E 135°28'0 0.0
2015-Dec-13 00:33N 34°39' E 135°28'5 4.8
2015-Dec-12 23:33N 34°37' E 135°22'0 0.0
2015-Dec-12 22:16N 34°37' E 135°22'0 0.0
2015-Dec-12 21:04N 34°37' E 135°22'0 0.0
2015-Dec-12 20:22N 34°37' E 135°22'0 0.0
2015-Dec-12 19:22N 34°37' E 135°22'0 0.1
2015-Dec-12 18:28N 34°37' E 135°22'0 0.0
2015-Dec-12 17:28N 34°37' E 135°22'0 0.0
2015-Dec-12 16:33N 34°37' E 135°22'0 0.0
2015-Dec-12 15:33N 34°37' E 135°22'3 2.5
2015-Dec-12 14:33N 34°36' E 135°25'1 0.2
2015-Dec-12 09:34N 34°35' E 135°26'9 9.1
2015-Dec-12 08:33N 34°31' E 135°16'2010.2
2015-Dec-12 06:33N 34°16' E 134°60'6 6.3
2015-Dec-12 05:34N 34°15' E 135°07'0 0.0
2015-Dec-12 04:29N 34°15' E 135°07'0 0.0
2015-Dec-12 03:32N 34°15' E 135°07'0 0.0
2015-Dec-12 02:32N 34°15' E 135°07'0 0.0
2015-Dec-12 01:29N 34°15' E 135°07'0 0.0
2015-Dec-12 00:32N 34°15' E 135°07'0 0.0
2015-Dec-11 23:32N 34°15' E 135°07'0 0.0
2015-Dec-11 22:32N 34°15' E 135°07'0 0.3
2015-Dec-11 21:33N 34°14' E 135°07'6 5.9
2015-Dec-11 20:33N 34°20' E 135°06'5 5.2
2015-Dec-11 19:30N 34°24' E 135°11'0 0.0
2015-Dec-11 16:27N 34°24' E 135°11'0 0.0
2015-Dec-11 15:33N 34°24' E 135°11'0 0.0
2015-Dec-11 12:09N 34°24' E 135°11'0 0.0
2015-Dec-11 11:27N 34°24' E 135°11'0 0.0
2015-Dec-11 09:18N 34°24' E 135°11'0 0.0
2015-Dec-11 05:27N 34°24' E 135°11'0 0.1
2015-Dec-11 04:33N 34°24' E 135°11'0 0.1
2015-Dec-11 03:19N 34°24' E 135°11'810.4
2015-Dec-11 02:33N 34°31' E 135°06'10 9.7
2015-Dec-11 01:32N 34°36' E 134°56'10 0.3
2015-Dec-09 10:26N 34°41' E 134°45'1112.1
2015-Dec-09 09:33N 34°38' E 134°58'9 8.7
2015-Dec-09 08:33N 34°31' E 135°04'1211.6
2015-Dec-09 07:31N 34°19' E 134°60'1010.8
2015-Dec-09 06:33N 34°08' E 134°60'  
2015-Dec-06 00:29N 34°58' E 140°01'1111.8
2015-Dec-05 23:33N 35°04' E 140°12'3210.5
2015-Dec-05 20:33N 35°25' E 140°40'1310.9
2015-Dec-05 19:19N 35°36' E 140°50'18 9.4
2015-Dec-05 17:23N 35°54' E 140°47'5 6.0
2015-Dec-05 16:33N 35°55' E 140°40'0 0.0
2015-Dec-05 00:33N 35°55' E 140°41'  

Dump ship's entire track history